Time;durP1;ratioP1;P1;durP2;ratioP2;P2;SDS_P1;SDS_P2;PMS_P1;PMS_P2;Temp;Humidity;BMP_temperature;BMP_pressure;BME280_temperature;BME280_humidity;BME280_pressure;Samples;Min_cycle;Max_cycle;Signal;HPM_P1;HPM_P2
2022/11/21 00:00:17;;;;;;;9.70;6.93;;;5.60;99.90;;;;;;4145185;28;20430;-73
2022/11/21 00:02:18;;;;;;;7.67;5.47;;;5.60;99.90;;;;;;4144951;28;20033;-73
2022/11/21 00:04:19;;;;;;;9.63;5.60;;;5.60;99.90;;;;;;4145435;28;20076;-65
2022/11/21 00:06:22;;;;;;;8.20;5.23;;;5.60;99.90;;;;;;4145193;28;20108;-65
2022/11/21 00:08:23;;;;;;;7.50;5.57;;;5.60;99.90;;;;;;4145232;28;20485;-73
2022/11/21 00:10:25;;;;;;;10.57;6.23;;;5.60;99.90;;;;;;4144790;28;20111;-67
2022/11/21 00:12:26;;;;;;;10.53;7.33;;;5.60;99.90;;;;;;4144460;28;20025;-74
2022/11/21 00:14:27;;;;;;;9.17;5.53;;;5.60;99.90;;;;;;4144044;28;20072;-64
2022/11/21 00:16:28;;;;;;;8.73;5.90;;;5.60;99.90;;;;;;4144979;28;20041;-70
2022/11/21 00:18:29;;;;;;;10.27;6.27;;;5.60;99.90;;;;;;4126343;28;20086;-64
2022/11/21 00:20:31;;;;;;;9.43;6.13;;;5.50;99.90;;;;;;4145477;28;20080;-67
2022/11/21 00:22:32;;;;;;;9.77;6.50;;;5.50;99.90;;;;;;4144144;28;20030;-64
2022/11/21 00:24:33;;;;;;;11.13;6.27;;;5.50;99.90;;;;;;4146156;28;20060;-72
2022/11/21 00:26:36;;;;;;;11.83;7.87;;;5.50;99.90;;;;;;4144468;28;20076;-66
2022/11/21 00:28:37;;;;;;;13.40;6.90;;;5.50;99.90;;;;;;4145461;28;20104;-72
2022/11/21 00:30:38;;;;;;;10.53;6.60;;;5.50;99.90;;;;;;4144061;28;20113;-66
2022/11/21 00:32:40;;;;;;;10.50;7.00;;;5.50;99.90;;;;;;4143526;28;20522;-72
2022/11/21 00:34:41;;;;;;;9.33;6.50;;;5.50;99.90;;;;;;4144721;28;20034;-72
2022/11/21 00:36:42;;;;;;;10.67;6.73;;;5.50;99.90;;;;;;4144979;28;20413;-73
2022/11/21 00:38:43;;;;;;;9.80;5.90;;;5.50;99.90;;;;;;4144867;28;20068;-66
2022/11/21 00:40:44;;;;;;;8.20;6.00;;;5.50;99.90;;;;;;4143829;28;20029;-65
2022/11/21 00:42:45;;;;;;;8.23;5.40;;;5.50;99.90;;;;;;4144465;28;20117;-64
2022/11/21 00:44:46;;;;;;;8.60;5.63;;;5.50;99.90;;;;;;4144385;28;20445;-66
2022/11/21 00:46:48;;;;;;;9.33;5.67;;;5.50;99.90;;;;;;4144169;28;20049;-64
2022/11/21 00:48:49;;;;;;;7.53;5.20;;;5.50;99.90;;;;;;4143765;28;21033;-64
2022/11/21 00:50:50;;;;;;;7.90;5.77;;;5.50;99.90;;;;;;4145284;28;20038;-72
2022/11/21 00:52:55;;;;;;;7.67;5.50;;;5.50;99.90;;;;;;4143816;28;20959;-64
2022/11/21 00:54:56;;;;;;;9.10;5.37;;;5.50;99.90;;;;;;4144879;28;20100;-65
2022/11/21 00:56:57;;;;;;;8.20;5.43;;;5.50;99.90;;;;;;4143382;28;20423;-67
2022/11/21 00:58:59;;;;;;;8.47;5.20;;;5.50;99.90;;;;;;4145524;28;20521;-70
2022/11/21 01:01:09;;;;;;;7.77;4.87;;;5.50;99.90;;;;;;4144138;28;20091;-74
2022/11/21 01:03:10;;;;;;;10.15;4.60;;;5.50;99.90;;;;;;4144967;28;20034;-69
2022/11/21 01:05:12;;;;;;;6.47;4.67;;;5.50;99.90;;;;;;4143641;28;20038;-66
2022/11/21 01:07:13;;;;;;;7.10;4.80;;;5.50;99.90;;;;;;4144849;28;20030;-69
2022/11/21 01:09:15;;;;;;;8.00;4.93;;;5.50;99.90;;;;;;4144244;28;20034;-68
2022/11/21 01:11:18;;;;;;;7.90;5.10;;;5.50;99.90;;;;;;4143995;28;20449;-72
2022/11/21 01:13:19;;;;;;;7.70;4.90;;;5.50;99.90;;;;;;4143962;28;20668;-68
2022/11/21 01:15:20;;;;;;;7.27;4.87;;;5.50;99.90;;;;;;4143829;28;20090;-73
2022/11/21 01:17:22;;;;;;;6.50;5.20;;;5.50;99.90;;;;;;4144707;28;20088;-74
2022/11/21 01:19:23;;;;;;;8.50;5.03;;;5.50;99.90;;;;;;4142477;28;20030;-67
2022/11/21 01:21:27;;;;;;;8.90;5.90;;;5.50;99.90;;;;;;4145068;28;20505;-73
2022/11/21 01:23:29;;;;;;;8.73;4.80;;;5.50;99.90;;;;;;4143889;28;20104;-64
2022/11/21 01:25:33;;;;;;;5.70;3.90;;;5.50;99.90;;;;;;4145314;28;20046;-66
2022/11/21 01:27:34;;;;;;;8.50;4.27;;;5.40;99.90;;;;;;4146240;28;20042;-73
2022/11/21 01:29:35;;;;;;;7.30;4.23;;;5.50;99.90;;;;;;4147522;28;20127;-66
2022/11/21 01:31:36;;;;;;;5.30;4.10;;;5.40;99.90;;;;;;4147166;28;20448;-65
2022/11/21 01:33:37;;;;;;;7.83;5.20;;;5.40;99.90;;;;;;4147913;28;20080;-72
2022/11/21 01:35:38;;;;;;;6.37;4.33;;;5.40;99.90;;;;;;4146269;28;20034;-64
2022/11/21 01:37:40;;;;;;;7.23;4.83;;;5.40;99.90;;;;;;4147727;28;20555;-74
2022/11/21 01:39:41;;;;;;;6.73;3.90;;;5.40;99.90;;;;;;4147058;28;20025;-64
2022/11/21 01:41:44;;;;;;;7.33;5.00;;;5.40;99.90;;;;;;4147539;28;20548;-63
2022/11/21 01:43:47;;;;;;;7.27;4.63;;;5.30;99.90;;;;;;4147124;28;20037;-66
2022/11/21 01:45:55;;;;;;;10.30;6.20;;;5.30;99.90;;;;;;4146834;28;20441;-65
2022/11/21 01:47:56;;;;;;;7.77;4.93;;;5.40;99.90;;;;;;4147517;28;20022;-66
2022/11/21 01:49:57;;;;;;;5.83;4.43;;;5.30;99.90;;;;;;4147262;28;20017;-70
2022/11/21 01:52:26;;;;;;;6.43;4.00;;;5.30;99.90;;;;;;4147836;28;20034;-73
2022/11/21 01:54:37;;;;;;;8.83;5.60;;;5.30;99.90;;;;;;4132515;28;20574;-75
2022/11/21 01:56:50;;;;;;;8.90;5.23;;;5.30;99.90;;;;;;4144771;28;20089;-72
2022/11/21 01:58:54;;;;;;;8.47;4.90;;;5.30;99.90;;;;;;4147099;28;20034;-74
2022/11/21 02:00:55;;;;;;;5.27;3.97;;;5.30;99.90;;;;;;4129356;28;20038;-71
2022/11/21 02:03:00;;;;;;;7.57;5.07;;;5.30;99.90;;;;;;4146243;28;20042;-72
2022/11/21 02:05:04;;;;;;;6.33;4.00;;;5.30;99.90;;;;;;4147740;28;20029;-67
2022/11/21 02:07:06;;;;;;;5.97;4.00;;;5.30;99.90;;;;;;4145044;28;20034;-64
2022/11/21 02:09:07;;;;;;;8.20;5.07;;;5.20;99.90;;;;;;4147218;28;20421;-65
2022/11/21 02:11:49;;;;;;;7.93;4.30;;;5.20;99.90;;;;;;4146453;28;20518;-64
2022/11/21 02:13:51;;;;;;;5.17;3.50;;;5.20;99.90;;;;;;4144578;28;20096;-64
2022/11/21 02:15:52;;;;;;;3.33;2.80;;;5.20;99.90;;;;;;4146519;28;20433;-65
2022/11/21 02:17:53;;;;;;;6.00;3.17;;;5.20;99.90;;;;;;4147189;28;21133;-64
2022/11/21 02:20:00;;;;;;;4.43;3.13;;;5.20;99.90;;;;;;4144765;28;20096;-73
2022/11/21 02:22:11;;;;;;;4.57;3.70;;;5.20;99.90;;;;;;4134599;28;20456;-65
2022/11/21 02:24:35;;;;;;;3.85;2.75;;;5.20;99.90;;;;;;4146144;28;20049;-65
2022/11/21 02:26:37;;;;;;;3.93;2.57;;;5.10;99.90;;;;;;4138434;28;20437;-73
2022/11/21 02:28:38;;;;;;;4.30;3.00;;;5.10;99.90;;;;;;4146545;28;20084;-64
2022/11/21 02:30:41;;;;;;;6.83;2.73;;;5.10;99.90;;;;;;4147404;28;20030;-64
2022/11/21 02:32:47;;;;;;;4.33;3.03;;;5.10;99.90;;;;;;4128226;28;20104;-72
2022/11/21 02:34:48;;;;;;;5.17;3.63;;;5.10;99.90;;;;;;4146825;28;20359;-65
2022/11/21 02:36:49;;;;;;;3.70;2.77;;;5.10;99.90;;;;;;4145407;28;20034;-64
2022/11/21 02:38:50;;;;;;;4.83;3.33;;;5.10;99.90;;;;;;4145764;28;20140;-69
2022/11/21 02:41:04;;;;;;;5.67;3.00;;;5.10;99.90;;;;;;4145208;28;20605;-73
2022/11/21 02:43:46;;;;;;;4.83;2.63;;;5.10;99.90;;;;;;4131294;28;20034;-67
2022/11/21 02:45:47;;;;;;;2.30;2.00;;;5.10;99.90;;;;;;4097311;28;20450;-63
2022/11/21 02:47:52;;;;;;;2.03;1.47;;;5.00;99.90;;;;;;4130653;28;20077;-72
2022/11/21 02:50:10;;;;;;;2.53;2.03;;;5.00;99.90;;;;;;4130112;28;20085;-73
2022/11/21 02:52:11;;;;;;;4.67;2.30;;;5.00;99.90;;;;;;4130616;28;20046;-64
2022/11/21 02:54:12;;;;;;;3.43;2.50;;;5.00;99.90;;;;;;4129982;28;20450;-73
2022/11/21 02:56:13;;;;;;;4.37;2.07;;;5.00;99.90;;;;;;4130746;28;20130;-66
2022/11/21 02:58:14;;;;;;;2.17;1.93;;;5.00;99.90;;;;;;4129085;28;20042;-71
2022/11/21 03:00:16;;;;;;;2.33;1.83;;;5.00;99.90;;;;;;4130271;28;20034;-73
2022/11/21 03:02:17;;;;;;;2.37;2.00;;;5.00;99.90;;;;;;4129370;28;20050;-65
2022/11/21 03:04:18;;;;;;;3.33;2.37;;;5.00;99.90;;;;;;4130405;28;20046;-73
2022/11/21 03:06:20;;;;;;;3.20;2.27;;;5.00;99.90;;;;;;4129352;28;20112;-68
2022/11/21 03:08:21;;;;;;;2.80;2.47;;;4.90;99.90;;;;;;4130431;28;20427;-74
2022/11/21 03:10:22;;;;;;;2.97;2.27;;;4.90;99.90;;;;;;4129457;28;20034;-68
2022/11/21 03:12:23;;;;;;;4.03;3.30;;;4.90;99.90;;;;;;4130055;28;20097;-71
2022/11/21 03:14:24;;;;;;;4.60;2.70;;;4.90;99.90;;;;;;4129811;28;20034;-71
2022/11/21 03:16:25;;;;;;;3.37;2.30;;;4.90;99.90;;;;;;4129051;28;20105;-69
2022/11/21 03:18:26;;;;;;;4.20;2.43;;;4.90;99.90;;;;;;4130168;28;20445;-65
2022/11/21 03:20:33;;;;;;;2.90;2.57;;;4.90;99.90;;;;;;4128867;28;20038;-65
2022/11/21 03:22:34;;;;;;;4.27;2.30;;;4.90;99.90;;;;;;4128584;28;20089;-65
2022/11/21 03:24:35;;;;;;;3.40;2.00;;;4.90;99.90;;;;;;4129848;28;20030;-74
2022/11/21 03:26:36;;;;;;;1.77;1.40;;;4.90;99.90;;;;;;4130499;28;20672;-74
2022/11/21 03:28:37;;;;;;;1.63;1.20;;;4.90;99.90;;;;;;4128728;28;20055;-72
2022/11/21 03:30:38;;;;;;;2.53;1.03;;;4.90;99.90;;;;;;4130069;28;20050;-70
2022/11/21 03:32:40;;;;;;;2.60;1.30;;;4.80;99.90;;;;;;4129241;28;20038;-65
2022/11/21 03:34:41;;;;;;;0.70;0.63;;;4.80;99.90;;;;;;4130140;28;20050;-66
2022/11/21 03:36:42;;;;;;;3.90;2.00;;;4.80;99.90;;;;;;4128870;28;20046;-65
2022/11/21 03:38:43;;;;;;;1.43;1.00;;;4.80;99.90;;;;;;4130120;28;20434;-64
2022/11/21 03:40:44;;;;;;;1.33;0.90;;;4.80;99.90;;;;;;4128891;28;20478;-71
2022/11/21 03:42:45;;;;;;;1.50;1.00;;;4.80;99.90;;;;;;4129585;28;20479;-67
2022/11/21 03:44:46;;;;;;;2.23;1.40;;;4.80;99.90;;;;;;4127771;28;20096;-72
2022/11/21 03:46:48;;;;;;;0.93;0.80;;;4.80;99.90;;;;;;4143829;28;20104;-65
2022/11/21 03:48:49;;;;;;;1.17;0.90;;;4.80;99.90;;;;;;4145337;28;20597;-66
2022/11/21 03:50:50;;;;;;;0.60;0.50;;;4.80;99.90;;;;;;4143876;28;20042;-64
2022/11/21 03:52:51;;;;;;;0.60;0.60;;;4.80;99.90;;;;;;4145727;28;20037;-64
2022/11/21 03:54:52;;;;;;;0.83;0.60;;;4.70;99.90;;;;;;4145352;28;20038;-63
2022/11/21 03:56:53;;;;;;;1.03;0.77;;;4.70;99.90;;;;;;4145739;28;20042;-64
2022/11/21 03:58:55;;;;;;;2.30;1.17;;;4.70;99.90;;;;;;4144716;28;20596;-64
2022/11/21 04:00:56;;;;;;;0.83;0.60;;;4.70;99.90;;;;;;4145332;28;20076;-64
2022/11/21 04:02:57;;;;;;;1.37;0.53;;;4.70;99.90;;;;;;4144253;28;21434;-64
2022/11/21 04:04:58;;;;;;;1.80;1.03;;;4.70;99.90;;;;;;4145061;28;20041;-64
2022/11/21 04:06:59;;;;;;;4.37;1.40;;;4.70;99.90;;;;;;4144883;28;20045;-64
2022/11/21 04:09:00;;;;;;;1.60;1.10;;;4.70;99.90;;;;;;4145294;28;20037;-70
2022/11/21 04:11:02;;;;;;;1.03;0.77;;;4.60;99.90;;;;;;4144947;28;20096;-64
2022/11/21 04:13:03;;;;;;;2.57;0.93;;;4.60;99.90;;;;;;4145026;28;20092;-72
2022/11/21 04:15:05;;;;;;;2.40;0.57;;;4.60;99.90;;;;;;4144827;28;20321;-65
2022/11/21 04:17:06;;;;;;;1.10;0.60;;;4.60;99.90;;;;;;4144751;28;20038;-65
2022/11/21 04:19:07;;;;;;;0.90;0.60;;;4.60;99.90;;;;;;4145491;28;20299;-73
2022/11/21 04:21:09;;;;;;;0.70;0.43;;;4.60;99.90;;;;;;4144600;28;20034;-67
2022/11/21 04:23:10;;;;;;;3.47;0.70;;;4.60;99.90;;;;;;4126095;28;20288;-69
2022/11/21 04:25:12;;;;;;;1.27;0.60;;;4.50;99.90;;;;;;4144912;28;20042;-68
2022/11/21 04:27:13;;;;;;;1.70;0.40;;;4.60;99.90;;;;;;4145790;28;20279;-71
2022/11/21 04:29:14;;;;;;;1.43;0.50;;;4.50;99.90;;;;;;4143805;28;20337;-70
2022/11/21 04:31:16;;;;;;;0.77;0.50;;;4.50;99.90;;;;;;4144879;28;20334;-71
2022/11/21 04:33:17;;;;;;;2.10;0.60;;;4.50;99.90;;;;;;4144160;28;20329;-65
2022/11/21 04:35:19;;;;;;;0.53;0.53;;;4.50;99.90;;;;;;4145638;28;20314;-70
2022/11/21 04:37:20;;;;;;;2.17;0.80;;;4.50;99.90;;;;;;4144269;28;20021;-66
2022/11/21 04:39:21;;;;;;;0.87;0.50;;;4.50;99.90;;;;;;4144331;28;20303;-65
2022/11/21 04:41:22;;;;;;;0.50;0.43;;;4.50;99.90;;;;;;4143733;28;20038;-65
2022/11/21 04:43:23;;;;;;;0.50;0.43;;;4.50;99.90;;;;;;4144794;28;20338;-64
2022/11/21 04:45:24;;;;;;;1.20;0.60;;;4.50;99.90;;;;;;4143502;28;20042;-66
2022/11/21 04:47:26;;;;;;;0.70;0.40;;;4.50;99.90;;;;;;4143219;28;20767;-65
2022/11/21 04:49:27;;;;;;;0.83;0.43;;;4.40;99.90;;;;;;4144357;28;20306;-64
2022/11/21 04:51:28;;;;;;;0.90;0.60;;;4.40;99.90;;;;;;4143590;28;20499;-66
2022/11/21 04:53:29;;;;;;;0.43;0.27;;;4.40;99.90;;;;;;4145286;28;20259;-74
2022/11/21 04:55:31;;;;;;;1.90;0.50;;;4.40;99.90;;;;;;4143678;28;20357;-64
2022/11/21 04:57:33;;;;;;;1.70;0.83;;;4.40;99.90;;;;;;4144957;28;20267;-64
2022/11/21 04:59:34;;;;;;;3.60;0.90;;;4.40;99.90;;;;;;4143621;28;20045;-64
2022/11/21 05:01:36;;;;;;;2.73;0.50;;;4.40;99.90;;;;;;4146806;28;20049;-63
2022/11/21 05:03:37;;;;;;;3.53;1.10;;;4.40;99.90;;;;;;4148706;28;20283;-66
2022/11/21 05:05:39;;;;;;;2.73;1.40;;;4.40;99.90;;;;;;4150591;28;20278;-63
2022/11/21 05:07:40;;;;;;;3.67;1.60;;;4.30;99.90;;;;;;4149100;28;20283;-71
2022/11/21 05:09:41;;;;;;;1.60;0.63;;;4.40;99.90;;;;;;4150471;28;20267;-66
2022/11/21 05:14:02;;;;;;;1.57;1.13;;;4.40;99.90;;;;;;4150509;28;20314;-65
2022/11/21 05:16:03;;;;;;;0.60;0.43;;;4.40;99.90;;;;;;4146643;28;20283;-69
2022/11/21 05:18:05;;;;;;;1.73;0.80;;;4.40;99.90;;;;;;4149714;28;20751;-71
2022/11/21 05:20:06;;;;;;;2.53;1.20;;;4.40;99.90;;;;;;4149413;28;20349;-64
2022/11/21 05:22:07;;;;;;;2.60;1.67;;;4.40;99.90;;;;;;4149819;28;21096;-64
2022/11/21 05:24:08;;;;;;;1.87;1.10;;;4.40;99.90;;;;;;4148808;28;20341;-63
2022/11/21 05:26:10;;;;;;;1.37;1.00;;;4.30;99.90;;;;;;4149397;28;20279;-68
2022/11/21 05:28:11;;;;;;;1.97;1.30;;;4.40;99.90;;;;;;4150095;28;20759;-64
2022/11/21 05:30:12;;;;;;;2.63;1.70;;;4.40;99.90;;;;;;4149450;28;20263;-64
2022/11/21 05:32:13;;;;;;;4.20;1.93;;;4.40;99.90;;;;;;4150351;28;20275;-73
2022/11/21 05:34:14;;;;;;;4.83;1.87;;;4.40;99.90;;;;;;4148998;28;20321;-64
2022/11/21 05:36:15;;;;;;;5.90;3.07;;;4.40;99.90;;;;;;4149228;28;20298;-67
2022/11/21 05:38:17;;;;;;;2.43;1.40;;;4.40;99.90;;;;;;4148639;28;20100;-64
2022/11/21 05:40:18;;;;;;;2.60;1.30;;;4.30;99.90;;;;;;4149742;28;20663;-64
2022/11/21 05:43:44;;;;;;;2.07;1.37;;;4.30;99.90;;;;;;4148548;28;20287;-64
2022/11/21 05:44:40;;;;;;;;;;;4.30;99.90;;;;;;4142901;28;20333;-64
2022/11/21 05:46:41;;;;;;;2.17;1.23;;;4.20;99.90;;;;;;4148948;28;20372;-70
2022/11/21 05:48:42;;;;;;;1.33;1.00;;;4.20;99.90;;;;;;4149683;28;20042;-62
2022/11/21 05:50:47;;;;;;;2.83;0.90;;;4.20;99.90;;;;;;4148876;28;20346;-73
2022/11/21 05:52:48;;;;;;;3.00;0.80;;;4.10;99.90;;;;;;4148622;28;20279;-73
2022/11/21 05:54:49;;;;;;;3.03;0.77;;;4.10;99.90;;;;;;4141953;28;20092;-64
2022/11/21 05:56:50;;;;;;;2.40;0.90;;;4.10;99.90;;;;;;4149612;28;20302;-65
2022/11/21 05:58:54;;;;;;;4.27;1.10;;;4.00;99.90;;;;;;4149359;28;20663;-63
2022/11/21 06:00:57;;;;;;;16.47;8.87;;;4.00;99.90;;;;;;4149348;28;20271;-62
2022/11/21 06:05:18;;;;;;;2.63;0.90;;;4.00;99.90;;;;;;4149706;28;20740;-64
2022/11/21 06:07:19;;;;;;;3.73;0.93;;;4.00;99.90;;;;;;4149934;28;20272;-64
2022/11/21 06:09:20;;;;;;;1.77;1.03;;;4.00;99.90;;;;;;4148976;28;20740;-67
2022/11/21 06:11:21;;;;;;;1.10;0.87;;;4.00;99.90;;;;;;4132391;28;20783;-64
2022/11/21 06:13:22;;;;;;;3.33;1.20;;;4.00;99.90;;;;;;4146256;28;20283;-69
2022/11/21 06:15:23;;;;;;;4.83;1.53;;;4.00;99.90;;;;;;4147263;28;20350;-68
2022/11/21 06:17:24;;;;;;;2.67;1.37;;;4.00;99.90;;;;;;4145651;28;20287;-62
2022/11/21 06:19:25;;;;;;;5.97;2.10;;;4.00;99.90;;;;;;4146769;28;20342;-64
2022/11/21 06:21:28;;;;;;;2.53;1.63;;;4.00;99.90;;;;;;4146122;28;20272;-64
2022/11/21 06:23:30;;;;;;;2.57;0.83;;;3.90;99.90;;;;;;4147259;28;20330;-64
2022/11/21 06:25:31;;;;;;;3.70;1.87;;;3.90;99.90;;;;;;4128355;28;20809;-67
2022/11/21 06:27:32;;;;;;;3.17;1.53;;;3.90;99.90;;;;;;4147243;28;20318;-64
2022/11/21 06:29:33;;;;;;;4.67;2.37;;;3.90;99.90;;;;;;4144446;28;20271;-62
2022/11/21 06:31:34;;;;;;;3.77;2.03;;;3.80;99.90;;;;;;4146677;28;20330;-63
2022/11/21 06:33:36;;;;;;;4.33;2.37;;;3.80;99.90;;;;;;4139792;28;20643;-68
2022/11/21 06:35:37;;;;;;;5.47;2.43;;;3.80;99.90;;;;;;4145419;28;20651;-66
2022/11/21 06:37:38;;;;;;;5.80;2.30;;;3.70;99.90;;;;;;4143291;28;20322;-63
2022/11/21 06:39:40;;;;;;;2.80;1.07;;;3.70;99.90;;;;;;4128037;28;20692;-65
2022/11/21 06:41:41;;;;;;;2.37;1.50;;;3.70;99.90;;;;;;4147124;28;20033;-69
2022/11/21 06:43:42;;;;;;;2.83;2.10;;;3.60;99.90;;;;;;4146100;28;20305;-64
2022/11/21 06:45:43;;;;;;;5.83;2.10;;;3.60;99.90;;;;;;4147048;28;20906;-69
2022/11/21 06:47:44;;;;;;;4.93;1.77;;;3.50;99.90;;;;;;4144896;28;20263;-67
2022/11/21 06:49:46;;;;;;;1.83;1.10;;;3.60;99.90;;;;;;4146987;28;20263;-63
2022/11/21 06:51:47;;;;;;;2.80;1.40;;;3.60;99.90;;;;;;4145249;28;20626;-64
2022/11/21 06:53:54;;;;;;;2.17;1.30;;;3.50;99.90;;;;;;4129244;28;20276;-63
2022/11/21 06:55:58;;;;;;;4.17;1.70;;;3.60;99.90;;;;;;4145276;28;20722;-64
2022/11/21 06:57:59;;;;;;;2.67;1.23;;;3.60;99.90;;;;;;4145080;28;20314;-65
2022/11/21 07:00:01;;;;;;;2.73;1.43;;;3.60;99.90;;;;;;4142954;28;20291;-63
2022/11/21 07:02:02;;;;;;;2.47;1.37;;;3.60;99.90;;;;;;4145215;28;20287;-62
2022/11/21 07:04:03;;;;;;;2.27;1.37;;;3.60;99.90;;;;;;4144296;28;20260;-60
2022/11/21 07:06:05;;;;;;;3.17;1.97;;;3.60;99.90;;;;;;4145527;28;20275;-66
2022/11/21 07:08:06;;;;;;;1.30;1.03;;;3.60;99.90;;;;;;4145277;28;20589;-64
2022/11/21 07:10:08;;;;;;;2.03;0.97;;;3.60;99.90;;;;;;4144130;28;20283;-60
2022/11/21 07:14:29;;;;;;;3.37;1.00;;;3.60;99.90;;;;;;4142353;28;20259;-62
2022/11/21 07:16:32;;;;;;;2.43;0.80;;;3.70;99.90;;;;;;4147165;28;20283;-62
2022/11/21 07:18:34;;;;;;;2.50;1.80;;;3.60;99.90;;;;;;4145155;28;20353;-61
2022/11/21 07:20:35;;;;;;;3.80;1.83;;;3.70;99.90;;;;;;4145857;28;20272;-61
2022/11/21 07:22:37;;;;;;;4.00;2.33;;;3.80;99.90;;;;;;4144649;28;20276;-61
2022/11/21 07:24:38;;;;;;;6.17;2.60;;;3.80;99.90;;;;;;4145802;28;20831;-63
2022/11/21 07:26:39;;;;;;;3.67;2.00;;;3.80;99.90;;;;;;4144697;28;20276;-61
2022/11/21 07:28:40;;;;;;;3.47;1.50;;;3.80;99.90;;;;;;4144178;28;20774;-61
2022/11/21 07:30:41;;;;;;;4.10;1.70;;;3.70;99.90;;;;;;4144738;28;20271;-62
2022/11/21 07:32:42;;;;;;;1.77;1.10;;;3.80;99.90;;;;;;4128703;28;20280;-63
2022/11/21 07:34:43;;;;;;;5.00;2.40;;;3.80;99.90;;;;;;4144276;28;20353;-65
2022/11/21 07:36:44;;;;;;;3.10;1.50;;;3.80;99.90;;;;;;4144450;28;20291;-60
2022/11/21 07:38:46;;;;;;;4.93;2.33;;;3.80;99.90;;;;;;4145024;28;20365;-62
2022/11/21 07:40:47;;;;;;;5.27;2.70;;;3.90;99.90;;;;;;4145132;28;20371;-63
2022/11/21 07:42:48;;;;;;;2.97;1.60;;;3.80;99.90;;;;;;4143885;28;20251;-61
2022/11/21 07:44:49;;;;;;;4.07;2.03;;;3.90;99.90;;;;;;4144436;28;20263;-62
2022/11/21 07:46:54;;;;;;;4.00;1.70;;;3.90;99.90;;;;;;4142978;28;20295;-60
2022/11/21 07:48:55;;;;;;;3.10;1.70;;;3.90;99.90;;;;;;4144708;28;20812;-64
2022/11/21 07:50:56;;;;;;;7.77;2.60;;;3.90;99.90;;;;;;4145702;28;20272;-60
2022/11/21 07:53:02;;;;;;;7.43;1.83;;;4.00;99.90;;;;;;4144194;28;20858;-67
2022/11/21 07:55:04;;;;;;;5.83;2.37;;;4.00;99.90;;;;;;4146285;28;20271;-61
2022/11/21 07:57:06;;;;;;;35.57;14.80;;;4.00;99.90;;;;;;4143967;28;20264;-61
2022/11/21 07:59:07;;;;;;;98.27;39.97;;;4.00;99.90;;;;;;4144979;28;20353;-62
2022/11/21 08:01:08;;;;;;;30.93;15.47;;;4.10;99.90;;;;;;4144365;28;20267;-63
2022/11/21 08:03:10;;;;;;;8.97;5.40;;;4.10;99.90;;;;;;4145484;28;20753;-64
2022/11/21 08:05:12;;;;;;;15.80;8.87;;;4.10;99.90;;;;;;4144416;28;20271;-63
2022/11/21 08:07:14;;;;;;;15.90;9.37;;;4.10;99.90;;;;;;4144921;28;20287;-62
2022/11/21 08:09:15;;;;;;;8.63;5.13;;;4.20;99.90;;;;;;4144355;28;20680;-62
2022/11/21 08:11:16;;;;;;;10.10;5.53;;;4.20;99.90;;;;;;4144842;28;20679;-63
2022/11/21 08:13:18;;;;;;;4.17;3.27;;;4.20;99.90;;;;;;4143590;28;20353;-62
2022/11/21 08:15:19;;;;;;;3.97;2.97;;;4.20;99.90;;;;;;4145204;28;20810;-62
2022/11/21 08:17:20;;;;;;;6.17;4.30;;;4.20;99.90;;;;;;4144742;28;20302;-62
2022/11/21 08:19:21;;;;;;;5.17;3.37;;;4.30;99.90;;;;;;4144273;28;20311;-61
2022/11/21 08:21:22;;;;;;;4.93;3.53;;;4.30;99.90;;;;;;4144392;28;20597;-62
2022/11/21 08:23:23;;;;;;;6.17;3.40;;;4.30;99.90;;;;;;4143744;28;20318;-64
2022/11/21 08:25:24;;;;;;;4.27;3.10;;;4.30;99.90;;;;;;4145489;28;20330;-61
2022/11/21 08:27:25;;;;;;;5.23;3.00;;;4.30;99.90;;;;;;4143209;28;20295;-62
2022/11/21 08:29:26;;;;;;;4.33;3.43;;;4.30;99.90;;;;;;4144765;28;20689;-61
2022/11/21 08:31:27;;;;;;;3.47;2.10;;;4.30;99.90;;;;;;4143476;28;20332;-62
2022/11/21 08:33:28;;;;;;;6.40;3.93;;;4.30;99.90;;;;;;4144008;28;20804;-62
2022/11/21 08:35:30;;;;;;;14.53;8.20;;;4.40;99.90;;;;;;4141691;28;20283;-60
2022/11/21 08:37:31;;;;;;;10.00;6.23;;;4.40;99.90;;;;;;4144826;28;20333;-61
2022/11/21 08:39:32;;;;;;;15.73;8.27;;;4.40;99.90;;;;;;4143396;28;20695;-62
2022/11/21 08:43:53;;;;;;;14.03;7.50;;;4.40;99.90;;;;;;4144377;28;20295;-60
2022/11/21 08:45:54;;;;;;;11.27;7.23;;;4.50;99.90;;;;;;4144054;28;20884;-61
2022/11/21 08:47:56;;;;;;;10.17;6.57;;;4.60;99.90;;;;;;4143284;28;20272;-60
2022/11/21 08:49:57;;;;;;;7.50;4.60;;;4.60;99.90;;;;;;4144578;28;20357;-63
2022/11/21 08:51:58;;;;;;;5.83;4.43;;;4.60;99.90;;;;;;4143610;28;20290;-61
2022/11/21 08:53:59;;;;;;;5.30;3.70;;;4.70;99.90;;;;;;4144285;28;20255;-60
2022/11/21 08:56:00;;;;;;;5.67;3.70;;;4.60;99.90;;;;;;4144942;28;20267;-63
2022/11/21 08:58:01;;;;;;;5.63;3.53;;;4.60;99.90;;;;;;4144203;28;20252;-62
2022/11/21 09:00:03;;;;;;;7.97;4.30;;;4.60;99.90;;;;;;4126648;28;20300;-62
2022/11/21 09:02:04;;;;;;;9.63;5.63;;;4.60;99.90;;;;;;4143625;28;20601;-62
2022/11/21 09:04:06;;;;;;;9.60;5.90;;;4.60;99.90;;;;;;4144781;28;20034;-61
2022/11/21 09:06:07;;;;;;;9.97;5.17;;;4.60;99.90;;;;;;4143591;28;20046;-62
2022/11/21 09:08:08;;;;;;;7.93;4.80;;;4.60;99.90;;;;;;4145042;28;20131;-62
2022/11/21 09:10:09;;;;;;;7.93;4.90;;;4.60;99.90;;;;;;4143618;28;20054;-62
2022/11/21 09:12:10;;;;;;;9.07;4.67;;;4.60;99.90;;;;;;4144271;28;20057;-62
2022/11/21 09:18:52;;;;;;;12.97;7.67;;;4.70;99.90;;;;;;4143586;28;20034;-62
2022/11/21 09:20:53;;;;;;;6.23;4.33;;;4.70;99.90;;;;;;4143305;28;20327;-63
2022/11/21 09:22:54;;;;;;;6.10;4.10;;;4.70;99.90;;;;;;4142586;28;20279;-64
2022/11/21 09:24:55;;;;;;;8.63;5.30;;;4.80;99.90;;;;;;4145112;28;20605;-63
2022/11/21 09:26:56;;;;;;;6.03;3.93;;;4.80;99.90;;;;;;4143371;28;20030;-62
2022/11/21 09:28:57;;;;;;;4.17;3.33;;;4.70;99.90;;;;;;4143919;28;20260;-62
2022/11/21 09:31:01;;;;;;;5.50;2.70;;;4.80;99.90;;;;;;4143678;28;20030;-61
2022/11/21 09:33:08;;;;;;;2.90;2.10;;;4.70;99.90;;;;;;4143402;28;20329;-62
2022/11/21 09:35:09;;;;;;;4.00;1.70;;;4.70;99.90;;;;;;4126640;28;20082;-61
2022/11/21 09:37:10;;;;;;;3.17;2.20;;;4.70;99.90;;;;;;4143414;28;20065;-61
2022/11/21 09:39:11;;;;;;;4.03;2.60;;;4.70;99.90;;;;;;4143542;28;20560;-61
2022/11/21 09:44:09;;;;;;;8.53;3.33;;;4.80;99.90;;;;;;4139373;28;20539;-62
2022/11/21 09:46:17;;;;;;;19.30;7.63;;;4.70;99.90;;;;;;4143788;28;20283;-61
2022/11/21 09:48:29;;;;;;;9.43;4.50;;;4.70;99.90;;;;;;4144205;28;20442;-62
2022/11/21 09:50:51;;;;;;;12.20;4.27;;;4.60;99.90;;;;;;4146479;28;20272;-62
2022/11/21 09:53:13;;;;;;;7.97;3.83;;;4.60;99.90;;;;;;4145971;28;20068;-61
2022/11/21 09:55:23;;;;;;;6.27;3.87;;;4.60;99.90;;;;;;4147878;28;20271;-61
2022/11/21 09:57:25;;;;;;;9.25;4.60;;;4.60;99.90;;;;;;4145589;28;20042;-61
2022/11/21 09:59:34;;;;;;;8.80;4.03;;;4.60;99.90;;;;;;4146221;28;20346;-62
2022/11/21 10:01:36;;;;;;;5.27;3.50;;;4.60;99.90;;;;;;4144191;28;20287;-63
2022/11/21 10:03:49;;;;;;;4.50;3.10;;;4.60;99.90;;;;;;4146861;28;20084;-62
2022/11/21 10:06:04;;;;;;;3.17;2.47;;;4.70;99.90;;;;;;4146417;28;20271;-61
2022/11/21 10:08:18;;;;;;;5.63;3.60;;;4.70;99.90;;;;;;4146134;28;20030;-62
2022/11/21 10:10:57;;;;;;;31.93;14.07;;;4.80;99.90;;;;;;4146390;28;20038;-62
2022/11/21 10:13:42;;;;;;;70.53;28.57;;;4.80;99.90;;;;;;4147049;28;20644;-61
2022/11/21 10:16:02;;;;;;;37.00;21.00;;;4.90;99.90;;;;;;4145093;28;20080;-62
2022/11/21 10:18:23;;;;;;;12.43;7.47;;;4.90;99.90;;;;;;4146874;28;20182;-63
2022/11/21 10:21:06;;;;;;;4.60;3.13;;;5.00;99.90;;;;;;4145918;28;20295;-62
2022/11/21 10:23:19;;;;;;;6.60;4.60;;;5.00;99.90;;;;;;4101875;28;20042;-62
2022/11/21 10:25:29;;;;;;;8.67;5.50;;;5.00;99.90;;;;;;4130719;28;20081;-61
2022/11/21 10:27:56;;;;;;;7.30;5.97;;;5.10;99.90;;;;;;4146123;28;20438;-61
2022/11/21 10:30:03;;;;;;;7.63;6.00;;;5.10;99.90;;;;;;4143169;28;20454;-61
2022/11/21 10:32:26;;;;;;;7.83;4.93;;;5.10;99.90;;;;;;4146055;28;20072;-62
2022/11/21 10:34:35;;;;;;;4.23;2.60;;;5.20;99.90;;;;;;4147008;28;20046;-62
2022/11/21 10:36:39;;;;;;;5.97;2.93;;;5.20;99.90;;;;;;4145689;28;20029;-64
2022/11/21 10:38:43;;;;;;;5.77;3.83;;;5.10;99.90;;;;;;4146766;28;20052;-62
2022/11/21 10:40:49;;;;;;;10.23;5.30;;;5.20;99.90;;;;;;4145221;28;20050;-62
2022/11/21 10:45:40;;;;;;;4.53;2.80;;;5.10;99.90;;;;;;4126223;28;20729;-61
2022/11/21 10:47:43;;;;;;;5.00;2.20;;;5.10;99.90;;;;;;4130389;28;20427;-62
2022/11/21 10:49:46;;;;;;;4.40;2.60;;;5.10;99.90;;;;;;4129661;28;20065;-62
2022/11/21 10:51:47;;;;;;;6.97;3.90;;;5.20;99.90;;;;;;4132218;28;20445;-63
2022/11/21 10:56:25;;;;;;;7.40;3.20;;;5.20;99.90;;;;;;4146085;28;20034;-64
2022/11/21 10:58:37;;;;;;;5.63;3.20;;;5.20;99.90;;;;;;4145232;28;20088;-65
2022/11/21 11:00:56;;;;;;;4.97;3.10;;;5.20;99.90;;;;;;4137869;28;20081;-68
2022/11/21 11:03:03;;;;;;;5.23;2.50;;;5.30;99.90;;;;;;4140843;28;20096;-62
2022/11/21 11:05:18;;;;;;;8.87;4.50;;;5.30;99.90;;;;;;4139713;28;20084;-60
2022/11/21 11:07:27;;;;;;;7.60;3.30;;;5.30;99.90;;;;;;4141693;28;20049;-62
2022/11/21 11:09:33;;;;;;;5.80;3.60;;;5.40;99.90;;;;;;4145776;28;20034;-62
2022/11/21 11:11:34;;;;;;;7.57;3.73;;;5.40;99.90;;;;;;4141986;28;20034;-65